createdAt,value
2017-04-11T00:00:47.407Z,0
2017-04-11T00:01:47.699Z,0
2017-04-11T00:02:47.942Z,0
2017-04-11T00:03:47.724Z,0
2017-04-11T00:04:47.363Z,0
2017-04-11T00:05:47.657Z,0
2017-04-11T00:06:47.641Z,0
2017-04-11T00:07:47.635Z,0
2017-04-11T00:08:47.633Z,0
2017-04-11T00:09:47.611Z,0
2017-04-11T00:10:47.301Z,0
2017-04-11T00:11:47.588Z,0
2017-04-11T00:12:47.829Z,0
2017-04-11T00:13:47.567Z,0
2017-04-11T00:14:47.557Z,0
2017-04-11T00:15:47.242Z,0
2017-04-11T00:16:47.537Z,0
2017-04-11T00:17:47.783Z,0
2017-04-11T00:18:47.513Z,0
2017-04-11T00:19:47.513Z,0
2017-04-11T00:20:47.494Z,0
2017-04-11T00:21:47.486Z,0
2017-04-11T00:22:47.775Z,0
2017-04-11T00:23:47.161Z,0
2017-04-11T00:24:47.148Z,0
2017-04-11T00:25:47.485Z,0
2017-04-11T00:26:46.826Z,0
2017-04-11T00:27:47.672Z,0
2017-04-11T00:28:47.419Z,0
2017-04-11T00:29:47.409Z,0
2017-04-11T00:30:47.391Z,0
2017-04-11T00:31:47.383Z,0
2017-04-11T00:32:47.674Z,0
2017-04-11T00:33:47.361Z,0
2017-04-11T00:34:47.351Z,0
2017-04-11T00:35:47.043Z,0
2017-04-11T00:36:47.335Z,0
2017-04-11T00:37:47.716Z,0
2017-04-11T00:38:47.009Z,0
2017-04-11T00:39:47.301Z,0
2017-04-11T00:40:47.293Z,0
2017-04-11T00:41:47.283Z,0
2017-04-11T00:42:47.584Z,0
2017-04-11T00:43:47.262Z,0
2017-04-11T00:44:47.253Z,0
2017-04-11T00:45:47.246Z,0
2017-04-11T00:46:47.236Z,0
2017-04-11T00:47:47.480Z,0
2017-04-11T00:48:47.217Z,0
2017-04-11T00:49:47.208Z,0
2017-04-11T00:50:46.888Z,0
2017-04-11T00:51:47.187Z,0
2017-04-11T00:52:47.480Z,0
2017-04-11T00:53:47.172Z,0
2017-04-11T00:54:47.159Z,0
2017-04-11T00:55:47.147Z,0
2017-04-11T00:56:47.131Z,0
2017-04-11T00:57:47.382Z,0
2017-04-11T00:58:47.112Z,0
2017-04-11T00:59:47.115Z,0
2017-04-11T01:00:47.098Z,0
2017-04-11T01:01:47.085Z,0
2017-04-11T01:02:47.324Z,0
2017-04-11T01:03:47.067Z,0
2017-04-11T01:04:47.053Z,0
2017-04-11T01:05:47.044Z,0
2017-04-11T01:06:47.037Z,0
2017-04-11T01:07:47.370Z,0
2017-04-11T01:08:47.010Z,0
2017-04-11T01:09:47.006Z,0
2017-04-11T01:10:46.993Z,0
2017-04-11T01:11:46.987Z,0
2017-04-11T01:12:47.229Z,0
2017-04-11T01:13:47.005Z,0
2017-04-11T01:14:46.954Z,0
2017-04-11T01:15:46.944Z,0
2017-04-11T01:16:46.627Z,0
2017-04-11T01:17:46.924Z,0
2017-04-11T01:18:46.908Z,0
2017-04-11T01:19:46.625Z,0
2017-04-11T01:20:46.886Z,0
2017-04-11T01:21:46.879Z,0
2017-04-11T01:22:47.123Z,0
2017-04-11T01:23:46.553Z,0
2017-04-11T01:24:46.848Z,0
2017-04-11T01:25:46.537Z,0
2017-04-11T01:26:46.523Z,0
2017-04-11T01:27:47.077Z,0
2017-04-11T01:28:46.514Z,0
2017-04-11T01:29:46.796Z,0
2017-04-11T01:30:46.785Z,0
2017-04-11T01:31:46.775Z,0
2017-04-11T01:32:47.063Z,0
2017-04-11T01:33:46.766Z,0
2017-04-11T01:34:46.744Z,0
2017-04-11T01:35:46.733Z,0
2017-04-11T01:36:46.724Z,0
2017-04-11T01:37:46.658Z,0
2017-04-11T01:38:46.701Z,0
2017-04-11T01:39:46.399Z,0
2017-04-11T01:40:46.386Z,0
2017-04-11T01:41:46.670Z,0
2017-04-11T01:42:47.011Z,0
2017-04-11T01:43:46.344Z,0
2017-04-11T01:44:46.638Z,0
2017-04-11T01:45:46.636Z,0
2017-04-11T01:46:46.012Z,0
2017-04-11T01:47:46.609Z,0
2017-04-11T01:48:46.596Z,0
2017-04-11T01:49:46.286Z,0
2017-04-11T01:50:46.577Z,0
2017-04-11T01:51:46.272Z,0
2017-04-11T01:52:46.559Z,0
2017-04-11T01:53:46.248Z,0
2017-04-11T01:54:46.236Z,0
2017-04-11T01:55:46.231Z,0
2017-04-11T01:56:46.517Z,0
2017-04-11T01:57:46.761Z,0
2017-04-11T01:58:46.500Z,0
2017-04-11T01:59:46.487Z,0
2017-04-11T02:00:46.476Z,0
2017-04-11T02:01:46.466Z,0
2017-04-11T02:02:46.703Z,0
2017-04-11T02:03:46.458Z,0
2017-04-11T02:04:46.435Z,0
2017-04-11T02:05:46.424Z,0
2017-04-11T02:06:46.409Z,0
2017-04-11T02:07:46.656Z,0
2017-04-11T02:08:46.393Z,0
2017-04-11T02:09:46.378Z,0
2017-04-11T02:10:46.370Z,0
2017-04-11T02:11:46.365Z,0
2017-04-11T02:12:46.647Z,0
2017-04-11T02:13:46.332Z,0
2017-04-11T02:14:46.326Z,0
2017-04-11T02:15:46.007Z,0
2017-04-11T02:16:46.303Z,0
2017-04-11T02:17:46.642Z,0
2017-04-11T02:18:46.280Z,0
2017-04-11T02:19:45.967Z,0
2017-04-11T02:20:45.960Z,0
2017-04-11T02:21:46.251Z,0
2017-04-11T02:22:46.494Z,0
2017-04-11T02:23:46.236Z,0
2017-04-11T02:24:46.223Z,0
2017-04-11T02:25:46.209Z,0
2017-04-11T02:26:46.198Z,0
2017-04-11T02:27:46.443Z,0
2017-04-11T02:28:46.178Z,0
2017-04-11T02:29:46.162Z,0
2017-04-11T02:30:46.162Z,0
2017-04-11T02:31:46.146Z,0
2017-04-11T02:32:46.432Z,0
2017-04-11T02:33:45.825Z,0
2017-04-11T02:34:46.109Z,0
2017-04-11T02:35:46.102Z,0
2017-04-11T02:36:45.781Z,0
2017-04-11T02:37:46.085Z,0
2017-04-11T02:38:46.316Z,0
2017-04-11T02:39:46.090Z,0
2017-04-11T02:40:46.041Z,0
2017-04-11T02:41:46.033Z,0
2017-04-11T02:42:46.024Z,0
2017-04-11T02:43:46.265Z,0
2017-04-11T02:44:46.000Z,0
2017-04-11T02:45:45.990Z,0
2017-04-11T02:46:45.979Z,0
2017-04-11T02:47:45.970Z,0
2017-04-11T02:48:46.265Z,0
2017-04-11T02:49:45.949Z,0
2017-04-11T02:50:45.936Z,0
2017-04-11T02:51:45.925Z,0
2017-04-11T02:52:45.917Z,0
2017-04-11T02:53:46.151Z,0
2017-04-11T02:54:45.892Z,0
2017-04-11T02:55:45.885Z,0
2017-04-11T02:56:45.870Z,0
2017-04-11T02:57:45.859Z,0
2017-04-11T02:58:46.197Z,0
2017-04-11T02:59:45.839Z,0
2017-04-11T03:00:45.525Z,0
2017-04-11T03:01:45.822Z,0
2017-04-11T03:02:45.812Z,0
2017-04-11T03:03:46.148Z,0
2017-04-11T03:04:45.788Z,0
2017-04-11T03:05:45.776Z,0
2017-04-11T03:06:45.763Z,0
2017-04-11T03:07:45.455Z,0
2017-04-11T03:08:45.993Z,0
2017-04-11T03:09:45.739Z,0
2017-04-11T03:10:45.720Z,0
2017-04-11T03:11:45.715Z,0
2017-04-11T03:12:45.715Z,0
2017-04-11T03:13:45.944Z,0
2017-04-11T03:14:45.681Z,0
2017-04-11T03:15:45.366Z,0
2017-04-11T03:16:45.660Z,0
2017-04-11T03:17:45.343Z,0
2017-04-11T03:18:45.890Z,0
2017-04-11T03:19:45.623Z,0
2017-04-11T03:20:45.615Z,0
2017-04-11T03:21:45.604Z,0
2017-04-11T03:22:45.594Z,0
2017-04-11T03:23:45.833Z,0
2017-04-11T03:24:45.575Z,0
2017-04-11T03:25:45.559Z,0
2017-04-11T03:26:45.553Z,0
2017-04-11T03:27:45.545Z,0
2017-04-11T03:28:45.829Z,0
2017-04-11T03:29:45.520Z,0
2017-04-11T03:30:45.506Z,0
2017-04-11T03:31:45.499Z,0
2017-04-11T03:32:45.498Z,0
2017-04-11T03:33:45.527Z,0
2017-04-11T03:34:45.165Z,0
2017-04-11T03:35:45.455Z,0
2017-04-11T03:36:45.450Z,0
2017-04-11T03:37:45.448Z,0
2017-04-11T03:38:45.728Z,0
2017-04-11T03:39:45.416Z,0
2017-04-11T03:40:45.402Z,0
2017-04-11T03:41:45.394Z,0
2017-04-11T03:42:45.082Z,0
2017-04-11T03:43:45.622Z,0
2017-04-11T03:44:45.367Z,0
2017-04-11T03:45:45.352Z,0
2017-04-11T03:46:45.343Z,0
2017-04-11T03:47:45.336Z,0
2017-04-11T03:48:45.575Z,0
2017-04-11T03:49:45.315Z,0
2017-04-11T03:50:45.302Z,0
2017-04-11T03:51:45.290Z,0
2017-04-11T03:52:45.280Z,0
2017-04-11T03:53:45.518Z,0
2017-04-11T03:54:45.298Z,0
2017-04-11T03:55:44.949Z,0
2017-04-11T03:56:45.239Z,0
2017-04-11T03:57:45.230Z,0
2017-04-11T03:58:45.478Z,0
2017-04-11T03:59:45.211Z,0
2017-04-11T04:00:45.201Z,0
2017-04-11T04:01:44.883Z,0
2017-04-11T04:02:45.197Z,0
2017-04-11T04:03:45.474Z,0
2017-04-11T04:04:44.856Z,0
2017-04-11T04:05:45.153Z,0
2017-04-11T04:06:45.139Z,5
2017-04-11T04:07:44.825Z,5
2017-04-11T04:08:45.420Z,5
2017-04-11T04:09:45.109Z,5
2017-04-11T04:10:44.794Z,5
2017-04-11T04:11:44.481Z,10
2017-04-11T04:12:45.073Z,10
2017-04-11T04:13:45.319Z,10
2017-04-11T04:14:44.756Z,10
2017-04-11T04:15:45.043Z,10
2017-04-11T04:16:45.049Z,15
2017-04-11T04:17:45.022Z,15
2017-04-11T04:18:44.961Z,15
2017-04-11T04:19:44.699Z,15
2017-04-11T04:20:44.990Z,20
2017-04-11T04:21:44.985Z,20
2017-04-11T04:22:44.668Z,20
2017-04-11T04:23:45.205Z,25
2017-04-11T04:24:44.341Z,25
2017-04-11T04:25:44.936Z,25
2017-04-11T04:26:44.923Z,30
2017-04-11T04:27:44.610Z,30
2017-04-11T04:28:45.156Z,30
2017-04-11T04:29:44.895Z,35
2017-04-11T04:30:44.889Z,35
2017-04-11T04:31:44.868Z,40
2017-04-11T04:32:44.863Z,40
2017-04-11T04:33:45.182Z,45
2017-04-11T04:34:44.231Z,45
2017-04-11T04:35:44.833Z,50
2017-04-11T04:36:44.513Z,55
2017-04-11T04:37:44.810Z,55
2017-04-11T04:38:45.043Z,60
2017-04-11T04:39:44.785Z,60
2017-04-11T04:40:44.468Z,65
2017-04-11T04:41:44.457Z,65
2017-04-11T04:42:44.764Z,85
2017-04-11T04:43:44.789Z,90
2017-04-11T04:44:44.432Z,85
2017-04-11T04:45:44.719Z,100
2017-04-11T04:46:44.400Z,105
2017-04-11T04:47:44.391Z,110
2017-04-11T04:48:44.940Z,115
2017-04-11T04:49:44.684Z,120
2017-04-11T04:50:44.692Z,130
2017-04-11T04:51:44.348Z,135
2017-04-11T04:52:44.642Z,140
2017-04-11T04:53:44.580Z,150
2017-04-11T04:54:44.618Z,140
2017-04-11T04:55:44.617Z,135
2017-04-11T04:56:44.003Z,115
2017-04-11T04:57:43.982Z,110
2017-04-11T04:58:44.630Z,110
2017-04-11T04:59:44.573Z,115
2017-04-11T05:00:44.560Z,115
2017-04-11T05:01:44.550Z,105
2017-04-11T05:02:44.544Z,110
2017-04-11T05:03:44.780Z,110
2017-04-11T05:04:44.532Z,115
2017-04-11T05:05:44.512Z,125
2017-04-11T05:06:44.503Z,200
2017-04-11T05:07:44.208Z,190
2017-04-11T05:08:44.757Z,145
2017-04-11T05:09:44.180Z,180
2017-04-11T05:10:44.465Z,215
2017-04-11T05:11:44.465Z,230
2017-04-11T05:12:44.450Z,185
2017-04-11T05:13:44.688Z,145
2017-04-11T05:14:44.431Z,195
2017-04-11T05:15:44.123Z,230
2017-04-11T05:16:44.414Z,245
2017-04-11T05:17:44.404Z,245
2017-04-11T05:18:44.698Z,250
2017-04-11T05:19:44.393Z,250
2017-04-11T05:20:44.100Z,265
2017-04-11T05:21:44.371Z,270
2017-04-11T05:22:44.367Z,280
2017-04-11T05:23:44.658Z,295
2017-04-11T05:24:44.347Z,300
2017-04-11T05:25:44.383Z,305
2017-04-11T05:26:44.341Z,310
2017-04-11T05:27:44.330Z,315
2017-04-11T05:28:44.578Z,325
2017-04-11T05:29:44.318Z,335
2017-04-11T05:30:44.309Z,325
2017-04-11T05:31:44.304Z,355
2017-04-11T05:32:44.301Z,365
2017-04-11T05:33:44.642Z,370
2017-04-11T05:34:43.993Z,380
2017-04-11T05:35:44.285Z,390
2017-04-11T05:36:44.276Z,400
2017-04-11T05:37:44.272Z,415
2017-04-11T05:38:44.517Z,445
2017-04-11T05:39:44.264Z,465
2017-04-11T05:40:44.263Z,395
2017-04-11T05:41:44.253Z,460
2017-04-11T05:42:44.251Z,385
2017-04-11T05:43:44.554Z,365
2017-04-11T05:44:44.591Z,325
2017-04-11T05:45:44.242Z,295
2017-04-11T05:46:44.236Z,300
2017-04-11T05:47:44.277Z,280
2017-04-11T05:48:44.478Z,260
2017-04-11T05:49:43.928Z,260
2017-04-11T05:50:44.219Z,250
2017-04-11T05:51:44.224Z,230
2017-04-11T05:52:44.217Z,225
2017-04-11T05:53:44.464Z,230
2017-04-11T05:54:44.209Z,225
2017-04-11T05:55:44.249Z,225
2017-04-11T05:56:44.201Z,220
2017-04-11T05:57:44.201Z,220
2017-04-11T05:58:44.554Z,220
2017-04-11T05:59:44.188Z,230
2017-04-11T06:00:44.185Z,235
2017-04-11T06:01:44.187Z,260
2017-04-11T06:02:44.176Z,275
2017-04-11T06:03:44.421Z,280
2017-04-11T06:04:44.167Z,280
2017-04-11T06:05:44.163Z,295
2017-04-11T06:06:44.156Z,300
2017-04-11T06:07:44.187Z,310
2017-04-11T06:08:44.446Z,320
2017-04-11T06:09:44.141Z,340
2017-04-11T06:10:43.842Z,340
2017-04-11T06:11:43.833Z,340
2017-04-11T06:12:43.823Z,330
2017-04-11T06:13:43.822Z,340
2017-04-11T06:14:44.423Z,340
2017-04-11T06:15:44.108Z,350
2017-04-11T06:16:43.801Z,370
2017-04-11T06:17:44.101Z,365
2017-04-11T06:18:43.795Z,380
2017-04-11T06:19:44.048Z,465
2017-04-11T06:20:44.082Z,465
2017-04-11T06:21:44.082Z,480
2017-04-11T06:22:44.105Z,430
2017-04-11T06:23:44.069Z,370
2017-04-11T06:24:44.413Z,320
2017-04-11T06:25:43.450Z,280
2017-04-11T06:26:44.053Z,280
2017-04-11T06:27:43.748Z,285
2017-04-11T06:28:43.742Z,295
2017-04-11T06:29:44.390Z,310
2017-04-11T06:30:44.035Z,355
2017-04-11T06:31:44.023Z,370
2017-04-11T06:32:44.016Z,355
2017-04-11T06:33:44.013Z,350
2017-04-11T06:34:44.260Z,325
2017-04-11T06:35:44.038Z,340
2017-04-11T06:36:43.997Z,340
2017-04-11T06:37:43.986Z,335
2017-04-11T06:38:43.993Z,340
2017-04-11T06:39:44.279Z,355
2017-04-11T06:40:43.977Z,390
2017-04-11T06:41:43.969Z,390
2017-04-11T06:42:43.981Z,375
2017-04-11T06:43:43.971Z,390
2017-04-11T06:44:44.255Z,405
2017-04-11T06:45:43.946Z,405
2017-04-11T06:46:43.941Z,395
2017-04-11T06:47:43.938Z,420
2017-04-11T06:48:43.930Z,420
2017-04-11T06:49:44.176Z,420
2017-04-11T06:50:43.923Z,400
2017-04-11T06:51:43.913Z,395
2017-04-11T06:52:43.909Z,385
2017-04-11T06:53:43.904Z,350
2017-04-11T06:54:44.148Z,330
2017-04-11T06:55:43.891Z,310
2017-04-11T06:56:43.897Z,295
2017-04-11T06:57:43.893Z,295
2017-04-11T06:58:43.572Z,290
2017-04-11T06:59:44.169Z,270
2017-04-11T07:00:43.263Z,215
2017-04-11T07:01:43.858Z,205
2017-04-11T07:02:43.855Z,165
2017-04-11T07:03:43.845Z,170
2017-04-11T07:04:44.193Z,235
2017-04-11T07:05:43.834Z,330
2017-04-11T07:06:44.176Z,355
2017-04-11T07:07:43.824Z,385
2017-04-11T07:08:43.824Z,430
2017-04-11T07:09:44.069Z,475
2017-04-11T07:10:43.805Z,435
2017-04-11T07:11:43.797Z,390
2017-04-11T07:12:43.494Z,400
2017-04-11T07:13:43.788Z,380
2017-04-11T07:14:44.089Z,370
2017-04-11T07:15:43.779Z,350
2017-04-11T07:16:43.795Z,240
2017-04-11T07:17:43.763Z,195
2017-04-11T07:18:43.759Z,180
2017-04-11T07:19:44.054Z,175
2017-04-11T07:20:43.749Z,160
2017-04-11T07:21:43.747Z,185
2017-04-11T07:22:43.737Z,205
2017-04-11T07:23:43.736Z,235
2017-04-11T07:24:43.983Z,295
2017-04-11T07:25:44.070Z,355
2017-04-11T07:26:43.751Z,405
2017-04-11T07:27:43.708Z,425
2017-04-11T07:28:43.704Z,415
2017-04-11T07:29:44.044Z,425
2017-04-11T07:30:43.690Z,420
2017-04-11T07:31:43.377Z,350
2017-04-11T07:32:43.679Z,330
2017-04-11T07:33:43.668Z,370
2017-04-11T07:34:43.948Z,375
2017-04-11T07:35:43.665Z,365
2017-04-11T07:36:43.652Z,345
2017-04-11T07:37:43.652Z,330
2017-04-11T07:38:43.640Z,330
2017-04-11T07:39:43.916Z,390
2017-04-11T07:40:43.675Z,340
2017-04-11T07:41:43.633Z,295
2017-04-11T07:42:43.624Z,345
2017-04-11T07:43:43.614Z,385
2017-04-11T07:44:43.909Z,365
2017-04-11T07:45:43.600Z,435
2017-04-11T07:46:43.595Z,395
2017-04-11T07:47:43.293Z,325
2017-04-11T07:48:43.586Z,315
2017-04-11T07:49:43.829Z,320
2017-04-11T07:50:43.577Z,360
2017-04-11T07:51:43.563Z,410
2017-04-11T07:52:43.557Z,430
2017-04-11T07:53:43.555Z,420
2017-04-11T07:54:43.849Z,395
2017-04-11T07:55:43.545Z,360
2017-04-11T07:56:43.536Z,325
2017-04-11T07:57:43.530Z,295
2017-04-11T07:58:43.527Z,265
2017-04-11T07:59:43.775Z,280
2017-04-11T08:00:43.520Z,305
2017-04-11T08:01:43.513Z,310
2017-04-11T08:02:43.508Z,300
2017-04-11T08:03:43.509Z,225
2017-04-11T08:04:43.792Z,260
2017-04-11T08:05:43.487Z,355
2017-04-11T08:06:43.480Z,345
2017-04-11T08:07:43.477Z,310
2017-04-11T08:08:43.467Z,315
2017-04-11T08:09:43.714Z,335
2017-04-11T08:10:43.456Z,340
2017-04-11T08:11:43.464Z,230
2017-04-11T08:12:43.446Z,210
2017-04-11T08:13:43.441Z,205
2017-04-11T08:14:43.074Z,220
2017-04-11T08:15:43.126Z,215
2017-04-11T08:16:43.428Z,195
2017-04-11T08:17:43.109Z,175
2017-04-11T08:18:43.411Z,180
2017-04-11T08:19:43.752Z,220
2017-04-11T08:20:43.406Z,155
2017-04-11T08:21:43.392Z,130
2017-04-11T08:22:43.382Z,145
2017-04-11T08:23:43.385Z,170
2017-04-11T08:24:43.017Z,170
2017-04-11T08:25:43.085Z,190
2017-04-11T08:26:43.355Z,190
2017-04-11T08:27:43.354Z,205
2017-04-11T08:28:43.042Z,215
2017-04-11T08:29:43.600Z,205
2017-04-11T08:30:43.029Z,225
2017-04-11T08:31:43.021Z,255
2017-04-11T08:32:43.020Z,290
2017-04-11T08:33:43.317Z,320
2017-04-11T08:34:43.253Z,430
2017-04-11T08:35:43.297Z,465
2017-04-11T08:36:43.293Z,535
2017-04-11T08:37:43.283Z,540
2017-04-11T08:38:43.335Z,485
2017-04-11T08:39:43.605Z,515
2017-04-11T08:40:43.263Z,580
2017-04-11T08:41:43.264Z,535
2017-04-11T08:42:43.252Z,565
2017-04-11T08:43:43.247Z,570
2017-04-11T08:44:43.695Z,575
2017-04-11T08:45:43.234Z,605
2017-04-11T08:46:43.236Z,620
2017-04-11T08:47:43.221Z,630
2017-04-11T08:48:43.217Z,705
2017-04-11T08:49:43.511Z,785
2017-04-11T08:50:43.203Z,685
2017-04-11T08:51:43.197Z,720
2017-04-11T08:52:43.193Z,605
2017-04-11T08:53:43.195Z,560
2017-04-11T08:54:43.130Z,520
2017-04-11T08:55:43.177Z,615
2017-04-11T08:56:43.218Z,620
2017-04-11T08:57:43.166Z,670
2017-04-11T08:58:43.163Z,700
2017-04-11T08:59:43.407Z,715
2017-04-11T09:00:43.158Z,735
2017-04-11T09:01:43.148Z,685
2017-04-11T09:02:43.143Z,525
2017-04-11T09:03:43.137Z,400
2017-04-11T09:04:43.490Z,370
2017-04-11T09:05:43.131Z,385
2017-04-11T09:06:43.127Z,430
2017-04-11T09:07:43.126Z,475
2017-04-11T09:08:43.113Z,420
2017-04-11T09:09:43.367Z,405
2017-04-11T09:10:43.158Z,500
2017-04-11T09:11:43.103Z,600
2017-04-11T09:12:43.109Z,625
2017-04-11T09:13:43.097Z,650
2017-04-11T09:14:43.388Z,645
2017-04-11T09:15:43.085Z,550
2017-04-11T09:16:43.124Z,520
2017-04-11T09:17:43.082Z,565
2017-04-11T09:18:42.778Z,595
2017-04-11T09:19:43.073Z,670
2017-04-11T09:20:43.062Z,690
2017-04-11T09:21:42.757Z,685
2017-04-11T09:22:43.054Z,780
2017-04-11T09:23:43.051Z,845
2017-04-11T09:24:43.300Z,675
2017-04-11T09:25:43.041Z,450
2017-04-11T09:26:42.741Z,315
2017-04-11T09:27:43.033Z,220
2017-04-11T09:28:43.032Z,215
2017-04-11T09:29:43.283Z,305
2017-04-11T09:30:43.023Z,355
2017-04-11T09:31:43.029Z,330
2017-04-11T09:32:43.019Z,420
2017-04-11T09:33:43.015Z,625
2017-04-11T09:34:43.267Z,695
2017-04-11T09:35:43.003Z,580
2017-04-11T09:36:42.400Z,445
2017-04-11T09:37:42.998Z,380
2017-04-11T09:38:42.691Z,380
2017-04-11T09:39:42.943Z,410
2017-04-11T09:40:42.986Z,395
2017-04-11T09:41:42.990Z,320
2017-04-11T09:42:42.681Z,280
2017-04-11T09:43:43.010Z,235
2017-04-11T09:44:43.242Z,205
2017-04-11T09:45:42.960Z,200
2017-04-11T09:46:42.959Z,210
2017-04-11T09:47:42.959Z,205
2017-04-11T09:48:42.957Z,165
2017-04-11T09:49:43.247Z,140
2017-04-11T09:50:42.944Z,145
2017-04-11T09:51:42.940Z,205
2017-04-11T09:52:42.935Z,265
2017-04-11T09:53:42.944Z,340
2017-04-11T09:54:43.275Z,420
2017-04-11T09:55:42.912Z,530
2017-04-11T09:56:42.914Z,570
2017-04-11T09:57:42.906Z,490
2017-04-11T09:58:42.904Z,475
2017-04-11T09:59:42.953Z,400
2017-04-11T10:00:42.891Z,395
2017-04-11T10:01:42.892Z,580
2017-04-11T10:02:42.884Z,625
2017-04-11T10:03:42.886Z,465
2017-04-11T10:04:42.869Z,455
2017-04-11T10:05:42.869Z,470
2017-04-11T10:06:42.258Z,515
2017-04-11T10:07:42.857Z,575
2017-04-11T10:08:42.556Z,780
2017-04-11T10:09:42.842Z,775
2017-04-11T10:10:42.235Z,690
2017-04-11T10:11:42.850Z,555
2017-04-11T10:12:42.530Z,460
2017-04-11T10:13:42.830Z,400
2017-04-11T10:14:43.068Z,440
2017-04-11T10:15:42.523Z,525
2017-04-11T10:16:42.813Z,535
2017-04-11T10:17:42.212Z,560
2017-04-11T10:18:42.200Z,570
2017-04-11T10:19:43.104Z,605
2017-04-11T10:20:42.799Z,610
2017-04-11T10:21:42.791Z,535
2017-04-11T10:22:42.183Z,490
2017-04-11T10:23:42.785Z,515
2017-04-11T10:24:42.519Z,580
2017-04-11T10:25:42.166Z,555
2017-04-11T10:26:42.466Z,565
2017-04-11T10:27:42.462Z,625
2017-04-11T10:28:42.773Z,585
2017-04-11T10:29:42.803Z,550
2017-04-11T10:30:42.449Z,480
2017-04-11T10:31:42.440Z,380
2017-04-11T10:32:42.441Z,360
2017-04-11T10:33:42.149Z,385
2017-04-11T10:34:42.430Z,365
2017-04-11T10:35:42.135Z,370
2017-04-11T10:36:42.733Z,420
2017-04-11T10:37:42.730Z,510
2017-04-11T10:38:42.114Z,600
2017-04-11T10:39:42.666Z,565
2017-04-11T10:40:42.412Z,395
2017-04-11T10:41:42.419Z,355
2017-04-11T10:42:42.706Z,455
2017-04-11T10:43:42.715Z,500
2017-04-11T10:44:43.047Z,530
2017-04-11T10:45:42.392Z,490
2017-04-11T10:46:42.693Z,410
2017-04-11T10:47:42.701Z,420
2017-04-11T10:48:42.384Z,460
2017-04-11T10:49:42.681Z,405
2017-04-11T10:50:42.678Z,315
2017-04-11T10:51:42.378Z,320
2017-04-11T10:52:42.369Z,400
2017-04-11T10:53:42.662Z,525
2017-04-11T10:54:42.609Z,705
2017-04-11T10:55:42.657Z,760
2017-04-11T10:56:42.360Z,730
2017-04-11T10:57:42.044Z,685
2017-04-11T10:58:42.342Z,700
2017-04-11T10:59:42.894Z,730
2017-04-11T11:00:42.350Z,675
2017-04-11T11:01:42.644Z,650
2017-04-11T11:02:42.338Z,665
2017-04-11T11:03:42.328Z,660
2017-04-11T11:04:42.926Z,620
2017-04-11T11:05:42.624Z,595
2017-04-11T11:06:42.620Z,615
2017-04-11T11:07:42.319Z,585
2017-04-11T11:08:42.019Z,530
2017-04-11T11:09:42.560Z,430
2017-04-11T11:10:42.611Z,345
2017-04-11T11:11:42.607Z,355
2017-04-11T11:12:42.618Z,365
2017-04-11T11:13:42.615Z,330
2017-04-11T11:14:42.852Z,320
2017-04-11T11:15:42.312Z,290
2017-04-11T11:16:42.291Z,280
2017-04-11T11:17:42.594Z,300
2017-04-11T11:18:42.290Z,345
2017-04-11T11:19:41.981Z,390
2017-04-11T11:20:42.632Z,445
2017-04-11T11:21:41.669Z,545
2017-04-11T11:22:42.278Z,555
2017-04-11T11:23:42.273Z,605
2017-04-11T11:24:42.267Z,690
2017-04-11T11:25:42.517Z,740
2017-04-11T11:26:42.273Z,725
2017-04-11T11:27:42.255Z,650
2017-04-11T11:28:42.556Z,555
2017-04-11T11:29:42.557Z,405
2017-04-11T11:30:42.497Z,280
2017-04-11T11:31:42.243Z,225
2017-04-11T11:32:42.599Z,200
2017-04-11T11:33:42.542Z,235
2017-04-11T11:34:42.537Z,270
2017-04-11T11:35:42.583Z,300
2017-04-11T11:36:42.532Z,410
2017-04-11T11:37:42.533Z,490
2017-04-11T11:38:42.537Z,490
2017-04-11T11:39:41.924Z,445
2017-04-11T11:40:42.568Z,405
2017-04-11T11:41:42.525Z,370
2017-04-11T11:42:41.911Z,335
2017-04-11T11:43:41.907Z,305
2017-04-11T11:44:42.200Z,280
2017-04-11T11:45:42.455Z,260
2017-04-11T11:46:42.192Z,255
2017-04-11T11:47:42.496Z,255
2017-04-11T11:48:42.185Z,275
2017-04-11T11:49:42.485Z,330
2017-04-11T11:50:42.832Z,440
2017-04-11T11:51:42.173Z,540
2017-04-11T11:52:42.482Z,610
2017-04-11T11:53:42.172Z,660
2017-04-11T11:54:42.160Z,700
2017-04-11T11:55:42.107Z,710
2017-04-11T11:56:42.158Z,680
2017-04-11T11:57:42.148Z,590
2017-04-11T11:58:42.146Z,535
2017-04-11T11:59:42.146Z,465
2017-04-11T12:00:42.691Z,340
2017-04-11T12:01:42.171Z,230
2017-04-11T12:02:42.131Z,165
2017-04-11T12:03:42.642Z,195
2017-04-11T12:04:42.122Z,340
2017-04-11T12:05:42.678Z,445
2017-04-11T12:06:42.442Z,400
2017-04-11T12:07:42.116Z,310
2017-04-11T12:08:42.111Z,250
2017-04-11T12:09:42.410Z,220
2017-04-11T12:10:42.702Z,240
2017-04-11T12:11:42.400Z,260
2017-04-11T12:12:42.398Z,225
2017-04-11T12:13:42.086Z,180
2017-04-11T12:14:42.388Z,165
2017-04-11T12:15:42.330Z,165
2017-04-11T12:16:42.074Z,165
2017-04-11T12:17:42.378Z,155
2017-04-11T12:18:42.122Z,160
2017-04-11T12:19:42.366Z,190
2017-04-11T12:20:42.412Z,230
2017-04-11T12:21:42.356Z,290
2017-04-11T12:22:42.359Z,280
2017-04-11T12:23:41.745Z,235
2017-04-11T12:24:42.044Z,215
2017-04-11T12:25:42.284Z,205
2017-04-11T12:26:42.027Z,215
2017-04-11T12:27:42.023Z,320
2017-04-11T12:28:42.031Z,500
2017-04-11T12:29:42.322Z,530
2017-04-11T12:30:42.576Z,395
2017-04-11T12:31:42.003Z,290
2017-04-11T12:32:41.699Z,255
2017-04-11T12:33:41.692Z,310
2017-04-11T12:34:41.988Z,365
2017-04-11T12:35:42.337Z,320
2017-04-11T12:36:42.283Z,245
2017-04-11T12:37:41.972Z,215
2017-04-11T12:38:42.272Z,260
2017-04-11T12:39:42.268Z,400
2017-04-11T12:40:42.307Z,490
2017-04-11T12:41:42.252Z,475
2017-04-11T12:42:42.257Z,475
2017-04-11T12:43:42.242Z,560
2017-04-11T12:44:42.246Z,615
2017-04-11T12:45:42.533Z,600
2017-04-11T12:46:42.235Z,620
2017-04-11T12:47:42.229Z,615
2017-04-11T12:48:41.917Z,615
2017-04-11T12:49:42.215Z,600
2017-04-11T12:50:42.154Z,575
2017-04-11T12:51:41.903Z,565
2017-04-11T12:52:42.201Z,560
2017-04-11T12:53:42.196Z,555
2017-04-11T12:54:42.193Z,565
2017-04-11T12:55:42.437Z,560
2017-04-11T12:56:42.180Z,560
2017-04-11T12:57:42.183Z,570
2017-04-11T12:58:42.177Z,580
2017-04-11T12:59:42.172Z,565
2017-04-11T13:00:42.415Z,515
2017-04-11T13:01:42.158Z,430
2017-04-11T13:02:42.157Z,355
2017-04-11T13:03:41.545Z,340
2017-04-11T13:04:42.151Z,375
2017-04-11T13:05:42.402Z,385
2017-04-11T13:06:42.142Z,325
2017-04-11T13:07:42.136Z,290
2017-04-11T13:08:42.134Z,290
2017-04-11T13:09:42.127Z,305
2017-04-11T13:10:42.381Z,310
2017-04-11T13:11:41.820Z,305
2017-04-11T13:12:41.811Z,295
2017-04-11T13:13:41.811Z,305
2017-04-11T13:14:42.109Z,365
2017-04-11T13:15:42.409Z,445
2017-04-11T13:16:42.102Z,480
2017-04-11T13:17:42.097Z,460
2017-04-11T13:18:42.095Z,450
2017-04-11T13:19:42.090Z,445
2017-04-11T13:20:42.338Z,460
2017-04-11T13:21:41.778Z,455
2017-04-11T13:22:42.079Z,410
2017-04-11T13:23:42.076Z,315
2017-04-11T13:24:42.066Z,280
2017-04-11T13:25:42.057Z,230
2017-04-11T13:26:41.756Z,185
2017-04-11T13:27:42.059Z,165
2017-04-11T13:28:42.061Z,190
2017-04-11T13:29:42.047Z,270
2017-04-11T13:30:42.293Z,340
2017-04-11T13:31:42.037Z,315
2017-04-11T13:32:42.041Z,290
2017-04-11T13:33:42.028Z,270
2017-04-11T13:34:42.026Z,260
2017-04-11T13:35:42.371Z,240
2017-04-11T13:36:42.018Z,235
2017-04-11T13:37:42.015Z,225
2017-04-11T13:38:42.008Z,215
2017-04-11T13:39:42.006Z,220
2017-04-11T13:40:41.963Z,220
2017-04-11T13:41:41.998Z,220
2017-04-11T13:42:42.331Z,210
2017-04-11T13:43:41.981Z,215
2017-04-11T13:44:41.975Z,220
2017-04-11T13:45:41.923Z,230
2017-04-11T13:46:41.973Z,275
2017-04-11T13:47:41.956Z,330
2017-04-11T13:48:41.968Z,375
2017-04-11T13:49:41.950Z,380
2017-04-11T13:50:42.194Z,375
2017-04-11T13:51:41.987Z,375
2017-04-11T13:52:41.932Z,375
2017-04-11T13:53:41.924Z,350
2017-04-11T13:54:41.920Z,315
2017-04-11T13:55:41.865Z,265
2017-04-11T13:56:41.909Z,235
2017-04-11T13:57:41.598Z,210
2017-04-11T13:58:41.901Z,195
2017-04-11T13:59:41.892Z,190
2017-04-11T14:00:42.185Z,190
2017-04-11T14:01:41.882Z,190
2017-04-11T14:02:41.878Z,195
2017-04-11T14:03:41.881Z,195
2017-04-11T14:04:41.869Z,210